METAR Data
IDs: Format: Raw Decoded Include TAF

Data at: 0522 UTC 30 Jun 2022

KSAT 300451Z 12005KT 10SM CLR 27/21 A3009 RMK AO2 SLP169 T02720206

KSSF 300453Z AUTO 11003KT 10SM CLR 27/22 A3006 RMK AO2 SLP164 T02670217

KHYI 300456Z AUTO 11003KT 10SM CLR 25/23 A3009 RMK AO2 SLP180 T02500228

KAUS 300453Z 16004KT 10SM CLR 26/22 A3007 RMK AO2 SLP172 T02560217